sensor_id;sensor_type;location;lat;lon;timestamp;temperature;humidity
52555;DHT22;38455;52.710;6.502;2022-12-18T00:01:05;-3.30;99.90
52555;DHT22;38455;52.710;6.502;2022-12-18T00:03:35;-3.30;99.90
52555;DHT22;38455;52.710;6.502;2022-12-18T00:06:01;-3.30;99.90
52555;DHT22;38455;52.710;6.502;2022-12-18T00:08:27;-3.20;99.90
52555;DHT22;38455;52.710;6.502;2022-12-18T00:10:53;-3.30;99.90
52555;DHT22;38455;52.710;6.502;2022-12-18T00:13:19;-3.30;99.90
52555;DHT22;38455;52.710;6.502;2022-12-18T00:15:44;-3.30;99.90
52555;DHT22;38455;52.710;6.502;2022-12-18T00:18:10;-3.30;99.90
52555;DHT22;38455;52.710;6.502;2022-12-18T00:20:39;-3.30;99.90
52555;DHT22;38455;52.710;6.502;2022-12-18T00:23:06;-3.30;99.90
52555;DHT22;38455;52.710;6.502;2022-12-18T00:25:36;-3.30;99.90
52555;DHT22;38455;52.710;6.502;2022-12-18T00:28:04;-3.30;99.90
52555;DHT22;38455;52.710;6.502;2022-12-18T00:30:30;-3.40;99.90
52555;DHT22;38455;52.710;6.502;2022-12-18T00:32:56;-3.40;99.90
52555;DHT22;38455;52.710;6.502;2022-12-18T00:35:22;-3.40;99.90
52555;DHT22;38455;52.710;6.502;2022-12-18T00:37:48;-3.40;99.90
52555;DHT22;38455;52.710;6.502;2022-12-18T00:40:13;-3.40;99.90
52555;DHT22;38455;52.710;6.502;2022-12-18T00:42:39;-3.40;99.90
52555;DHT22;38455;52.710;6.502;2022-12-18T00:45:28;-3.40;99.90
52555;DHT22;38455;52.710;6.502;2022-12-18T00:47:55;-3.40;99.90
52555;DHT22;38455;52.710;6.502;2022-12-18T00:50:22;-3.40;99.90
52555;DHT22;38455;52.710;6.502;2022-12-18T00:52:48;-3.40;99.90
52555;DHT22;38455;52.710;6.502;2022-12-18T00:55:15;-3.50;99.90
52555;DHT22;38455;52.710;6.502;2022-12-18T00:57:40;-3.50;99.90
52555;DHT22;38455;52.710;6.502;2022-12-18T01:00:08;-3.50;99.90
52555;DHT22;38455;52.710;6.502;2022-12-18T01:02:34;-3.50;99.90
52555;DHT22;38455;52.710;6.502;2022-12-18T01:05:00;-3.60;99.90
52555;DHT22;38455;52.710;6.502;2022-12-18T01:07:26;-3.60;99.90
52555;DHT22;38455;52.710;6.502;2022-12-18T01:09:52;-3.60;99.90
52555;DHT22;38455;52.710;6.502;2022-12-18T01:12:17;-3.70;99.90
52555;DHT22;38455;52.710;6.502;2022-12-18T01:14:43;-3.70;99.90
52555;DHT22;38455;52.710;6.502;2022-12-18T01:17:09;-3.80;99.90
52555;DHT22;38455;52.710;6.502;2022-12-18T01:19:34;-3.90;99.90
52555;DHT22;38455;52.710;6.502;2022-12-18T01:22:00;-4.00;99.90
52555;DHT22;38455;52.710;6.502;2022-12-18T01:24:25;-4.10;99.90
52555;DHT22;38455;52.710;6.502;2022-12-18T01:26:51;-4.20;99.90
52555;DHT22;38455;52.710;6.502;2022-12-18T01:29:17;-4.30;99.90
52555;DHT22;38455;52.710;6.502;2022-12-18T01:31:43;-4.30;99.90
52555;DHT22;38455;52.710;6.502;2022-12-18T01:34:09;-4.30;99.90
52555;DHT22;38455;52.710;6.502;2022-12-18T01:36:37;-4.40;99.90
52555;DHT22;38455;52.710;6.502;2022-12-18T01:39:09;-4.40;99.90
52555;DHT22;38455;52.710;6.502;2022-12-18T01:41:35;-4.40;99.90
52555;DHT22;38455;52.710;6.502;2022-12-18T01:44:55;-4.50;99.90
52555;DHT22;38455;52.710;6.502;2022-12-18T01:47:38;-4.50;99.90
52555;DHT22;38455;52.710;6.502;2022-12-18T01:50:22;-4.50;99.90
52555;DHT22;38455;52.710;6.502;2022-12-18T01:52:55;-4.50;99.90
52555;DHT22;38455;52.710;6.502;2022-12-18T01:55:24;-4.60;99.90
52555;DHT22;38455;52.710;6.502;2022-12-18T01:57:53;-4.60;99.90
52555;DHT22;38455;52.710;6.502;2022-12-18T02:00:21;-4.70;99.90
52555;DHT22;38455;52.710;6.502;2022-12-18T02:02:47;-4.70;99.90
52555;DHT22;38455;52.710;6.502;2022-12-18T02:05:53;-4.70;99.90
52555;DHT22;38455;52.710;6.502;2022-12-18T02:11:11;-4.80;99.90
52555;DHT22;38455;52.710;6.502;2022-12-18T02:13:55;-4.90;99.90
52555;DHT22;38455;52.710;6.502;2022-12-18T02:19:00;-4.90;99.90
52555;DHT22;38455;52.710;6.502;2022-12-18T02:27:04;-5.00;99.90
52555;DHT22;38455;52.710;6.502;2022-12-18T02:32:00;-5.00;99.90
52555;DHT22;38455;52.710;6.502;2022-12-18T02:34:30;-5.00;99.90
52555;DHT22;38455;52.710;6.502;2022-12-18T02:36:58;-5.00;99.90
52555;DHT22;38455;52.710;6.502;2022-12-18T02:39:25;-5.00;99.90
52555;DHT22;38455;52.710;6.502;2022-12-18T02:41:52;-5.10;99.90
52555;DHT22;38455;52.710;6.502;2022-12-18T02:44:18;-5.10;99.90
52555;DHT22;38455;52.710;6.502;2022-12-18T02:46:48;-5.20;99.90
52555;DHT22;38455;52.710;6.502;2022-12-18T02:49:36;-5.20;99.90
52555;DHT22;38455;52.710;6.502;2022-12-18T02:58:30;-5.40;99.90
52555;DHT22;38455;52.710;6.502;2022-12-18T03:06:35;-5.60;99.90
52555;DHT22;38455;52.710;6.502;2022-12-18T03:09:12;-5.70;99.90
52555;DHT22;38455;52.710;6.502;2022-12-18T03:11:42;-5.80;99.90
52555;DHT22;38455;52.710;6.502;2022-12-18T03:14:30;-5.80;99.90
52555;DHT22;38455;52.710;6.502;2022-12-18T03:16:59;-5.80;99.90
52555;DHT22;38455;52.710;6.502;2022-12-18T03:19:28;-5.80;99.90
52555;DHT22;38455;52.710;6.502;2022-12-18T03:21:56;-5.80;99.90
52555;DHT22;38455;52.710;6.502;2022-12-18T03:24:24;-5.70;99.90
52555;DHT22;38455;52.710;6.502;2022-12-18T03:26:54;-5.70;99.90
52555;DHT22;38455;52.710;6.502;2022-12-18T03:29:25;-5.70;99.90
52555;DHT22;38455;52.710;6.502;2022-12-18T03:32:00;-5.70;99.90
52555;DHT22;38455;52.710;6.502;2022-12-18T03:34:31;-5.70;99.90
52555;DHT22;38455;52.710;6.502;2022-12-18T03:36:58;-5.70;99.90
52555;DHT22;38455;52.710;6.502;2022-12-18T03:39:24;-5.70;99.90
52555;DHT22;38455;52.710;6.502;2022-12-18T03:45:10;-5.60;99.90
52555;DHT22;38455;52.710;6.502;2022-12-18T03:50:18;-5.70;99.90
52555;DHT22;38455;52.710;6.502;2022-12-18T03:55:14;-5.70;99.90
52555;DHT22;38455;52.710;6.502;2022-12-18T03:57:41;-5.70;99.90
52555;DHT22;38455;52.710;6.502;2022-12-18T04:00:13;-5.70;99.90
52555;DHT22;38455;52.710;6.502;2022-12-18T04:02:43;-5.70;99.90
52555;DHT22;38455;52.710;6.502;2022-12-18T04:05:10;-5.70;99.90
52555;DHT22;38455;52.710;6.502;2022-12-18T04:07:38;-5.70;99.90
52555;DHT22;38455;52.710;6.502;2022-12-18T04:10:06;-5.70;99.90
52555;DHT22;38455;52.710;6.502;2022-12-18T04:12:32;-5.70;99.90
52555;DHT22;38455;52.710;6.502;2022-12-18T04:14:58;-5.70;99.90
52555;DHT22;38455;52.710;6.502;2022-12-18T04:17:23;-5.80;99.90
52555;DHT22;38455;52.710;6.502;2022-12-18T04:19:49;-5.80;99.90
52555;DHT22;38455;52.710;6.502;2022-12-18T04:22:15;-5.90;99.90
52555;DHT22;38455;52.710;6.502;2022-12-18T04:24:41;-5.90;99.90
52555;DHT22;38455;52.710;6.502;2022-12-18T04:27:06;-6.00;99.90
52555;DHT22;38455;52.710;6.502;2022-12-18T04:29:32;-6.00;99.90
52555;DHT22;38455;52.710;6.502;2022-12-18T04:31:58;-5.90;99.90
52555;DHT22;38455;52.710;6.502;2022-12-18T04:34:23;-5.90;99.90
52555;DHT22;38455;52.710;6.502;2022-12-18T04:36:49;-5.90;99.90
52555;DHT22;38455;52.710;6.502;2022-12-18T04:39:15;-5.90;99.90
52555;DHT22;38455;52.710;6.502;2022-12-18T04:41:43;-5.90;99.90
52555;DHT22;38455;52.710;6.502;2022-12-18T04:44:09;-5.90;99.90
52555;DHT22;38455;52.710;6.502;2022-12-18T04:46:34;-5.90;99.90
52555;DHT22;38455;52.710;6.502;2022-12-18T04:49:00;-5.90;99.90
52555;DHT22;38455;52.710;6.502;2022-12-18T04:51:25;-5.90;99.90
52555;DHT22;38455;52.710;6.502;2022-12-18T04:53:51;-5.90;99.90
52555;DHT22;38455;52.710;6.502;2022-12-18T04:56:16;-5.90;99.90
52555;DHT22;38455;52.710;6.502;2022-12-18T04:58:43;-5.90;99.90
52555;DHT22;38455;52.710;6.502;2022-12-18T05:01:11;-5.90;99.90
52555;DHT22;38455;52.710;6.502;2022-12-18T05:03:37;-6.00;99.90
52555;DHT22;38455;52.710;6.502;2022-12-18T05:06:04;-6.00;99.90
52555;DHT22;38455;52.710;6.502;2022-12-18T05:08:30;-5.90;99.90
52555;DHT22;38455;52.710;6.502;2022-12-18T05:13:26;-5.90;99.90
52555;DHT22;38455;52.710;6.502;2022-12-18T05:15:52;-6.10;99.90
52555;DHT22;38455;52.710;6.502;2022-12-18T05:18:18;-6.10;99.90
52555;DHT22;38455;52.710;6.502;2022-12-18T05:20:43;-6.20;99.90
52555;DHT22;38455;52.710;6.502;2022-12-18T05:23:09;-6.10;99.90
52555;DHT22;38455;52.710;6.502;2022-12-18T05:25:35;-6.10;99.90
52555;DHT22;38455;52.710;6.502;2022-12-18T05:28:00;-6.10;99.90
52555;DHT22;38455;52.710;6.502;2022-12-18T05:30:26;-6.10;99.90
52555;DHT22;38455;52.710;6.502;2022-12-18T05:32:53;-6.10;99.90
52555;DHT22;38455;52.710;6.502;2022-12-18T05:35:18;-6.10;99.90
52555;DHT22;38455;52.710;6.502;2022-12-18T05:37:44;-6.00;99.90
52555;DHT22;38455;52.710;6.502;2022-12-18T05:40:11;-6.00;99.90
52555;DHT22;38455;52.710;6.502;2022-12-18T05:42:37;-6.10;99.90
52555;DHT22;38455;52.710;6.502;2022-12-18T05:45:03;-6.00;99.90
52555;DHT22;38455;52.710;6.502;2022-12-18T05:47:29;-6.00;99.90
52555;DHT22;38455;52.710;6.502;2022-12-18T05:49:54;-6.00;99.90
52555;DHT22;38455;52.710;6.502;2022-12-18T05:52:20;-6.10;99.90
52555;DHT22;38455;52.710;6.502;2022-12-18T05:54:46;-6.10;99.90
52555;DHT22;38455;52.710;6.502;2022-12-18T05:57:11;-6.10;99.90
52555;DHT22;38455;52.710;6.502;2022-12-18T05:59:37;-6.10;99.90
52555;DHT22;38455;52.710;6.502;2022-12-18T06:02:02;-6.10;99.90
52555;DHT22;38455;52.710;6.502;2022-12-18T06:04:28;-6.10;99.90
52555;DHT22;38455;52.710;6.502;2022-12-18T06:06:57;-6.10;99.90
52555;DHT22;38455;52.710;6.502;2022-12-18T06:09:23;-6.10;99.90
52555;DHT22;38455;52.710;6.502;2022-12-18T06:11:49;-6.20;99.90
52555;DHT22;38455;52.710;6.502;2022-12-18T06:14:16;-6.20;99.90
52555;DHT22;38455;52.710;6.502;2022-12-18T06:16:42;-6.20;99.90
52555;DHT22;38455;52.710;6.502;2022-12-18T06:19:14;-6.10;99.90
52555;DHT22;38455;52.710;6.502;2022-12-18T06:21:40;-6.10;99.90
52555;DHT22;38455;52.710;6.502;2022-12-18T06:24:06;-6.10;99.90
52555;DHT22;38455;52.710;6.502;2022-12-18T06:26:32;-6.10;99.90
52555;DHT22;38455;52.710;6.502;2022-12-18T06:28:57;-6.10;99.90
52555;DHT22;38455;52.710;6.502;2022-12-18T06:31:23;-6.10;99.90
52555;DHT22;38455;52.710;6.502;2022-12-18T06:33:49;-6.20;99.90
52555;DHT22;38455;52.710;6.502;2022-12-18T06:36:14;-6.10;99.90
52555;DHT22;38455;52.710;6.502;2022-12-18T06:38:43;-6.10;99.90
52555;DHT22;38455;52.710;6.502;2022-12-18T06:41:14;-6.10;99.90
52555;DHT22;38455;52.710;6.502;2022-12-18T06:43:41;-6.10;99.90
52555;DHT22;38455;52.710;6.502;2022-12-18T06:46:07;-6.10;99.90
52555;DHT22;38455;52.710;6.502;2022-12-18T06:48:33;-6.10;99.90
52555;DHT22;38455;52.710;6.502;2022-12-18T06:50:59;-6.10;99.90
52555;DHT22;38455;52.710;6.502;2022-12-18T06:53:25;-6.20;99.90
52555;DHT22;38455;52.710;6.502;2022-12-18T06:55:50;-6.10;99.90
52555;DHT22;38455;52.710;6.502;2022-12-18T06:58:17;-6.20;99.90
52555;DHT22;38455;52.710;6.502;2022-12-18T07:00:42;-6.20;99.90
52555;DHT22;38455;52.710;6.502;2022-12-18T07:03:08;-6.20;99.90
52555;DHT22;38455;52.710;6.502;2022-12-18T07:05:34;-6.10;99.90
52555;DHT22;38455;52.710;6.502;2022-12-18T07:08:04;-6.10;99.90
52555;DHT22;38455;52.710;6.502;2022-12-18T07:10:30;-6.10;99.90
52555;DHT22;38455;52.710;6.502;2022-12-18T07:12:56;-6.10;99.90
52555;DHT22;38455;52.710;6.502;2022-12-18T07:15:21;-6.10;99.90
52555;DHT22;38455;52.710;6.502;2022-12-18T07:17:47;-6.10;99.90
52555;DHT22;38455;52.710;6.502;2022-12-18T07:20:12;-6.10;99.90
52555;DHT22;38455;52.710;6.502;2022-12-18T07:22:38;-6.00;99.90
52555;DHT22;38455;52.710;6.502;2022-12-18T07:25:04;-6.00;99.90
52555;DHT22;38455;52.710;6.502;2022-12-18T07:27:30;-6.00;99.90
52555;DHT22;38455;52.710;6.502;2022-12-18T07:29:55;-6.00;99.90
52555;DHT22;38455;52.710;6.502;2022-12-18T07:32:21;-6.00;99.90
52555;DHT22;38455;52.710;6.502;2022-12-18T07:34:46;-6.00;99.90
52555;DHT22;38455;52.710;6.502;2022-12-18T07:37:12;-6.00;99.90
52555;DHT22;38455;52.710;6.502;2022-12-18T07:39:38;-6.00;99.90
52555;DHT22;38455;52.710;6.502;2022-12-18T07:42:03;-6.00;99.90
52555;DHT22;38455;52.710;6.502;2022-12-18T07:44:47;-6.00;99.90
52555;DHT22;38455;52.710;6.502;2022-12-18T07:47:13;-6.00;99.90
52555;DHT22;38455;52.710;6.502;2022-12-18T07:49:38;-5.90;99.90
52555;DHT22;38455;52.710;6.502;2022-12-18T07:52:04;-5.90;99.90
52555;DHT22;38455;52.710;6.502;2022-12-18T07:54:30;-5.90;99.90
52555;DHT22;38455;52.710;6.502;2022-12-18T07:56:55;-5.90;99.90
52555;DHT22;38455;52.710;6.502;2022-12-18T07:59:21;-5.90;99.90
52555;DHT22;38455;52.710;6.502;2022-12-18T08:01:46;-5.80;99.90
52555;DHT22;38455;52.710;6.502;2022-12-18T08:04:12;-5.80;99.90
52555;DHT22;38455;52.710;6.502;2022-12-18T08:06:38;-5.80;99.90
52555;DHT22;38455;52.710;6.502;2022-12-18T08:09:03;-5.80;99.90
52555;DHT22;38455;52.710;6.502;2022-12-18T08:11:29;-5.80;99.90
52555;DHT22;38455;52.710;6.502;2022-12-18T08:13:55;-5.70;99.90
52555;DHT22;38455;52.710;6.502;2022-12-18T08:16:22;-5.70;99.90
52555;DHT22;38455;52.710;6.502;2022-12-18T08:18:48;-5.60;99.90
52555;DHT22;38455;52.710;6.502;2022-12-18T08:21:17;-5.50;99.90
52555;DHT22;38455;52.710;6.502;2022-12-18T08:23:43;-5.50;99.90
52555;DHT22;38455;52.710;6.502;2022-12-18T08:26:13;-5.50;99.90
52555;DHT22;38455;52.710;6.502;2022-12-18T08:28:40;-5.40;99.90
52555;DHT22;38455;52.710;6.502;2022-12-18T08:31:06;-5.40;99.90
52555;DHT22;38455;52.710;6.502;2022-12-18T08:33:32;-5.30;99.90
52555;DHT22;38455;52.710;6.502;2022-12-18T08:35:59;-5.30;99.90
52555;DHT22;38455;52.710;6.502;2022-12-18T08:38:25;-5.20;99.90
52555;DHT22;38455;52.710;6.502;2022-12-18T08:41:02;-5.10;99.90
52555;DHT22;38455;52.710;6.502;2022-12-18T08:43:28;-5.00;99.90
52555;DHT22;38455;52.710;6.502;2022-12-18T08:46:13;-5.00;99.90
52555;DHT22;38455;52.710;6.502;2022-12-18T08:48:41;-5.00;99.90
52555;DHT22;38455;52.710;6.502;2022-12-18T08:51:07;-4.90;99.90
52555;DHT22;38455;52.710;6.502;2022-12-18T08:53:35;-4.80;99.90
52555;DHT22;38455;52.710;6.502;2022-12-18T08:56:01;-4.70;99.90
52555;DHT22;38455;52.710;6.502;2022-12-18T08:58:26;-4.60;99.90
52555;DHT22;38455;52.710;6.502;2022-12-18T09:00:52;-4.50;99.90
52555;DHT22;38455;52.710;6.502;2022-12-18T09:03:19;-4.40;99.90
52555;DHT22;38455;52.710;6.502;2022-12-18T09:05:48;-4.40;99.90
52555;DHT22;38455;52.710;6.502;2022-12-18T09:08:13;-4.30;99.90
52555;DHT22;38455;52.710;6.502;2022-12-18T09:10:43;-4.20;99.90
52555;DHT22;38455;52.710;6.502;2022-12-18T09:13:10;-4.10;99.90
52555;DHT22;38455;52.710;6.502;2022-12-18T09:15:50;-4.00;99.90
52555;DHT22;38455;52.710;6.502;2022-12-18T09:18:19;-3.90;99.90
52555;DHT22;38455;52.710;6.502;2022-12-18T09:20:45;-3.90;99.90
52555;DHT22;38455;52.710;6.502;2022-12-18T09:23:11;-3.80;99.90
52555;DHT22;38455;52.710;6.502;2022-12-18T09:25:38;-3.70;99.90
52555;DHT22;38455;52.710;6.502;2022-12-18T09:28:12;-3.70;99.90
52555;DHT22;38455;52.710;6.502;2022-12-18T09:30:43;-3.70;99.90
52555;DHT22;38455;52.710;6.502;2022-12-18T09:33:09;-3.60;99.90
52555;DHT22;38455;52.710;6.502;2022-12-18T09:35:39;-3.50;99.90
52555;DHT22;38455;52.710;6.502;2022-12-18T09:38:05;-3.40;99.90
52555;DHT22;38455;52.710;6.502;2022-12-18T09:40:40;-3.40;99.90
52555;DHT22;38455;52.710;6.502;2022-12-18T09:43:07;-3.30;99.90
52555;DHT22;38455;52.710;6.502;2022-12-18T09:45:44;-3.20;99.90
52555;DHT22;38455;52.710;6.502;2022-12-18T09:48:23;-3.10;99.90
52555;DHT22;38455;52.710;6.502;2022-12-18T09:50:50;-3.10;99.90
52555;DHT22;38455;52.710;6.502;2022-12-18T09:53:20;-3.00;99.90
52555;DHT22;38455;52.710;6.502;2022-12-18T09:55:48;-3.00;99.90
52555;DHT22;38455;52.710;6.502;2022-12-18T10:00:54;-2.90;99.90
52555;DHT22;38455;52.710;6.502;2022-12-18T10:03:21;-2.80;99.90
52555;DHT22;38455;52.710;6.502;2022-12-18T10:06:05;-2.80;99.90
52555;DHT22;38455;52.710;6.502;2022-12-18T10:11:39;-2.80;99.90
52555;DHT22;38455;52.710;6.502;2022-12-18T10:14:34;-2.70;99.90
52555;DHT22;38455;52.710;6.502;2022-12-18T10:19:54;-2.60;99.90
52555;DHT22;38455;52.710;6.502;2022-12-18T10:25:26;-2.50;99.90
52555;DHT22;38455;52.710;6.502;2022-12-18T10:27:57;-2.60;99.90
52555;DHT22;38455;52.710;6.502;2022-12-18T10:30:24;-2.50;99.90
52555;DHT22;38455;52.710;6.502;2022-12-18T10:32:51;-2.50;99.90
52555;DHT22;38455;52.710;6.502;2022-12-18T10:35:25;-2.50;99.90
52555;DHT22;38455;52.710;6.502;2022-12-18T10:38:02;-2.40;99.90
52555;DHT22;38455;52.710;6.502;2022-12-18T10:40:28;-2.40;99.90
52555;DHT22;38455;52.710;6.502;2022-12-18T10:43:14;-2.40;99.90
52555;DHT22;38455;52.710;6.502;2022-12-18T10:45:41;-2.30;99.90
52555;DHT22;38455;52.710;6.502;2022-12-18T10:48:21;-2.30;99.90
52555;DHT22;38455;52.710;6.502;2022-12-18T10:50:49;-2.20;99.90
52555;DHT22;38455;52.710;6.502;2022-12-18T10:53:24;-2.10;99.90
52555;DHT22;38455;52.710;6.502;2022-12-18T10:55:52;-2.10;99.90
52555;DHT22;38455;52.710;6.502;2022-12-18T10:58:34;-2.10;99.90
52555;DHT22;38455;52.710;6.502;2022-12-18T11:03:40;-2.10;99.90
52555;DHT22;38455;52.710;6.502;2022-12-18T11:06:15;-2.00;99.90
52555;DHT22;38455;52.710;6.502;2022-12-18T11:08:44;-2.00;99.90
52555;DHT22;38455;52.710;6.502;2022-12-18T11:11:23;-2.00;99.90
52555;DHT22;38455;52.710;6.502;2022-12-18T11:16:23;-2.00;99.90
52555;DHT22;38455;52.710;6.502;2022-12-18T11:18:49;-1.90;99.90
52555;DHT22;38455;52.710;6.502;2022-12-18T11:21:15;-1.80;99.90
52555;DHT22;38455;52.710;6.502;2022-12-18T11:23:49;-1.80;99.90
52555;DHT22;38455;52.710;6.502;2022-12-18T11:26:15;-1.70;99.90
52555;DHT22;38455;52.710;6.502;2022-12-18T11:28:44;-1.70;99.90
52555;DHT22;38455;52.710;6.502;2022-12-18T11:33:38;-1.60;99.90
52555;DHT22;38455;52.710;6.502;2022-12-18T11:36:08;-1.60;99.90
52555;DHT22;38455;52.710;6.502;2022-12-18T11:38:39;-1.60;99.90
52555;DHT22;38455;52.710;6.502;2022-12-18T11:41:27;-1.50;99.90
52555;DHT22;38455;52.710;6.502;2022-12-18T11:44:22;-1.50;99.90
52555;DHT22;38455;52.710;6.502;2022-12-18T11:46:56;-1.40;99.90
52555;DHT22;38455;52.710;6.502;2022-12-18T11:49:32;-1.40;99.90
52555;DHT22;38455;52.710;6.502;2022-12-18T11:52:13;-1.40;99.90
52555;DHT22;38455;52.710;6.502;2022-12-18T11:54:39;-1.40;99.90
52555;DHT22;38455;52.710;6.502;2022-12-18T11:57:34;-1.40;99.90
52555;DHT22;38455;52.710;6.502;2022-12-18T12:13:46;-1.20;99.90
52555;DHT22;38455;52.710;6.502;2022-12-18T12:32:04;-1.00;99.90
52555;DHT22;38455;52.710;6.502;2022-12-18T12:40:15;-0.90;99.90
52555;DHT22;38455;52.710;6.502;2022-12-18T12:42:50;-0.80;99.90
52555;DHT22;38455;52.710;6.502;2022-12-18T12:45:47;-0.80;99.90
52555;DHT22;38455;52.710;6.502;2022-12-18T12:48:23;-0.70;99.90
52555;DHT22;38455;52.710;6.502;2022-12-18T12:50:53;-0.70;99.90
52555;DHT22;38455;52.710;6.502;2022-12-18T12:53:30;-0.70;99.90
52555;DHT22;38455;52.710;6.502;2022-12-18T12:55:58;-0.60;99.90
52555;DHT22;38455;52.710;6.502;2022-12-18T13:01:18;-0.60;99.90
52555;DHT22;38455;52.710;6.502;2022-12-18T13:06:47;-0.50;99.90
52555;DHT22;38455;52.710;6.502;2022-12-18T13:09:15;-0.50;99.90
52555;DHT22;38455;52.710;6.502;2022-12-18T13:11:45;-0.50;99.90
52555;DHT22;38455;52.710;6.502;2022-12-18T13:14:37;-0.40;99.90
52555;DHT22;38455;52.710;6.502;2022-12-18T13:19:56;-0.30;99.90
52555;DHT22;38455;52.710;6.502;2022-12-18T13:25:02;-0.30;99.90
52555;DHT22;38455;52.710;6.502;2022-12-18T13:38:25;-0.30;99.90
52555;DHT22;38455;52.710;6.502;2022-12-18T13:40:58;-0.30;99.90
52555;DHT22;38455;52.710;6.502;2022-12-18T13:43:50;-0.30;99.90
52555;DHT22;38455;52.710;6.502;2022-12-18T13:46:20;-0.30;99.90
52555;DHT22;38455;52.710;6.502;2022-12-18T13:51:35;-0.30;99.90
52555;DHT22;38455;52.710;6.502;2022-12-18T13:56:50;-0.30;99.90
52555;DHT22;38455;52.710;6.502;2022-12-18T13:59:34;-0.30;99.90
52555;DHT22;38455;52.710;6.502;2022-12-18T14:04:37;-0.30;99.90
52555;DHT22;38455;52.710;6.502;2022-12-18T14:07:06;-0.30;99.90
52555;DHT22;38455;52.710;6.502;2022-12-18T14:09:40;-0.30;99.90
52555;DHT22;38455;52.710;6.502;2022-12-18T14:12:06;-0.30;99.90
52555;DHT22;38455;52.710;6.502;2022-12-18T14:14:51;-0.30;99.90
52555;DHT22;38455;52.710;6.502;2022-12-18T14:17:19;-0.30;99.90
52555;DHT22;38455;52.710;6.502;2022-12-18T14:19:47;-0.30;99.90
52555;DHT22;38455;52.710;6.502;2022-12-18T14:22:24;-0.30;99.90
52555;DHT22;38455;52.710;6.502;2022-12-18T14:25:28;-0.30;99.90
52555;DHT22;38455;52.710;6.502;2022-12-18T14:28:23;-0.30;99.90
52555;DHT22;38455;52.710;6.502;2022-12-18T14:30:49;-0.40;99.90
52555;DHT22;38455;52.710;6.502;2022-12-18T14:33:26;-0.40;99.90
52555;DHT22;38455;52.710;6.502;2022-12-18T14:38:37;-0.50;99.90
52555;DHT22;38455;52.710;6.502;2022-12-18T14:41:05;-0.50;99.90
52555;DHT22;38455;52.710;6.502;2022-12-18T14:43:33;-0.50;99.90
52555;DHT22;38455;52.710;6.502;2022-12-18T14:45:59;-0.50;99.90
52555;DHT22;38455;52.710;6.502;2022-12-18T14:48:37;-0.50;99.90
52555;DHT22;38455;52.710;6.502;2022-12-18T14:51:16;-0.50;99.90
52555;DHT22;38455;52.710;6.502;2022-12-18T14:53:45;-0.50;99.90
52555;DHT22;38455;52.710;6.502;2022-12-18T14:56:15;-0.50;99.90
52555;DHT22;38455;52.710;6.502;2022-12-18T14:59:15;-0.60;99.90
52555;DHT22;38455;52.710;6.502;2022-12-18T15:01:47;-0.60;99.90
52555;DHT22;38455;52.710;6.502;2022-12-18T15:09:33;-0.60;99.90
52555;DHT22;38455;52.710;6.502;2022-12-18T15:12:00;-0.60;99.90
52555;DHT22;38455;52.710;6.502;2022-12-18T15:14:40;-0.60;99.90
52555;DHT22;38455;52.710;6.502;2022-12-18T15:17:18;-0.70;99.90
52555;DHT22;38455;52.710;6.502;2022-12-18T15:19:45;-0.70;99.90
52555;DHT22;38455;52.710;6.502;2022-12-18T15:22:23;-0.70;99.90
52555;DHT22;38455;52.710;6.502;2022-12-18T15:24:50;-0.70;99.90
52555;DHT22;38455;52.710;6.502;2022-12-18T15:27:31;-0.70;99.90
52555;DHT22;38455;52.710;6.502;2022-12-18T15:30:21;-0.70;99.90
52555;DHT22;38455;52.710;6.502;2022-12-18T15:32:47;-0.70;99.90
52555;DHT22;38455;52.710;6.502;2022-12-18T15:37:42;-0.80;99.90
52555;DHT22;38455;52.710;6.502;2022-12-18T15:40:12;-0.70;99.90
52555;DHT22;38455;52.710;6.502;2022-12-18T15:42:38;-0.80;99.90
52555;DHT22;38455;52.710;6.502;2022-12-18T15:45:22;-0.80;99.90
52555;DHT22;38455;52.710;6.502;2022-12-18T15:47:48;-0.80;99.90
52555;DHT22;38455;52.710;6.502;2022-12-18T15:50:13;-0.80;99.90
52555;DHT22;38455;52.710;6.502;2022-12-18T15:52:42;-0.80;99.90
52555;DHT22;38455;52.710;6.502;2022-12-18T15:55:20;-0.80;99.90
52555;DHT22;38455;52.710;6.502;2022-12-18T15:58:05;-0.80;99.90
52555;DHT22;38455;52.710;6.502;2022-12-18T16:00:32;-0.80;99.90
52555;DHT22;38455;52.710;6.502;2022-12-18T16:02:59;-0.80;99.90
52555;DHT22;38455;52.710;6.502;2022-12-18T16:05:26;-0.80;99.90
52555;DHT22;38455;52.710;6.502;2022-12-18T16:07:52;-0.80;99.90
52555;DHT22;38455;52.710;6.502;2022-12-18T16:10:18;-0.80;99.90
52555;DHT22;38455;52.710;6.502;2022-12-18T16:12:44;-0.80;99.90
52555;DHT22;38455;52.710;6.502;2022-12-18T16:15:12;-0.80;99.90
52555;DHT22;38455;52.710;6.502;2022-12-18T16:17:39;-0.80;99.90
52555;DHT22;38455;52.710;6.502;2022-12-18T16:20:06;-0.80;99.90
52555;DHT22;38455;52.710;6.502;2022-12-18T16:22:32;-0.80;99.90
52555;DHT22;38455;52.710;6.502;2022-12-18T16:24:57;-0.80;99.90
52555;DHT22;38455;52.710;6.502;2022-12-18T16:27:24;-0.70;99.90
52555;DHT22;38455;52.710;6.502;2022-12-18T16:29:50;-0.70;99.90
52555;DHT22;38455;52.710;6.502;2022-12-18T16:32:17;-0.70;99.90
52555;DHT22;38455;52.710;6.502;2022-12-18T16:34:44;-0.70;99.90
52555;DHT22;38455;52.710;6.502;2022-12-18T16:37:11;-0.70;99.90
52555;DHT22;38455;52.710;6.502;2022-12-18T16:39:38;-0.60;99.90
52555;DHT22;38455;52.710;6.502;2022-12-18T16:42:14;-0.70;99.90
52555;DHT22;38455;52.710;6.502;2022-12-18T16:44:42;-0.60;99.90
52555;DHT22;38455;52.710;6.502;2022-12-18T16:47:08;-0.60;99.90
52555;DHT22;38455;52.710;6.502;2022-12-18T16:49:34;-0.60;99.90
52555;DHT22;38455;52.710;6.502;2022-12-18T16:51:59;-0.70;99.90
52555;DHT22;38455;52.710;6.502;2022-12-18T16:54:28;-0.70;99.90
52555;DHT22;38455;52.710;6.502;2022-12-18T16:57:00;-0.70;99.90
52555;DHT22;38455;52.710;6.502;2022-12-18T16:59:26;-0.80;99.90
52555;DHT22;38455;52.710;6.502;2022-12-18T17:01:52;-0.80;99.90
52555;DHT22;38455;52.710;6.502;2022-12-18T17:04:18;-0.80;99.90
52555;DHT22;38455;52.710;6.502;2022-12-18T17:06:44;-0.80;99.90
52555;DHT22;38455;52.710;6.502;2022-12-18T17:09:12;-0.80;99.90
52555;DHT22;38455;52.710;6.502;2022-12-18T17:11:42;-0.80;99.90
52555;DHT22;38455;52.710;6.502;2022-12-18T17:14:19;-0.80;99.90
52555;DHT22;38455;52.710;6.502;2022-12-18T17:16:45;-0.80;99.90
52555;DHT22;38455;52.710;6.502;2022-12-18T17:19:12;-0.80;99.90
52555;DHT22;38455;52.710;6.502;2022-12-18T17:21:38;-0.80;99.90
52555;DHT22;38455;52.710;6.502;2022-12-18T17:24:04;-0.70;99.90
52555;DHT22;38455;52.710;6.502;2022-12-18T17:26:30;-0.80;99.90
52555;DHT22;38455;52.710;6.502;2022-12-18T17:28:56;-0.80;99.90
52555;DHT22;38455;52.710;6.502;2022-12-18T17:31:24;-0.80;99.90
52555;DHT22;38455;52.710;6.502;2022-12-18T17:33:51;-0.70;99.90
52555;DHT22;38455;52.710;6.502;2022-12-18T17:36:18;-0.70;99.90
52555;DHT22;38455;52.710;6.502;2022-12-18T17:38:52;-0.70;99.90
52555;DHT22;38455;52.710;6.502;2022-12-18T17:41:17;-0.70;99.90
52555;DHT22;38455;52.710;6.502;2022-12-18T17:44:02;-0.70;99.90
52555;DHT22;38455;52.710;6.502;2022-12-18T17:46:34;-0.70;99.90
52555;DHT22;38455;52.710;6.502;2022-12-18T17:49:01;-0.60;99.90
52555;DHT22;38455;52.710;6.502;2022-12-18T17:51:27;-0.60;99.90
52555;DHT22;38455;52.710;6.502;2022-12-18T17:53:53;-0.60;99.90
52555;DHT22;38455;52.710;6.502;2022-12-18T17:56:21;-0.60;99.90